Time,TemperatureF,DewpointF,PressureIn,WindDirection,WindDirectionDegrees,WindSpeedMPH,WindSpeedGustMPH,Humidity,HourlyPrecipIn,Conditions,Clouds,dailyrainin,SoftwareType,DateUTC
2013-08-01 00:00:00,70.0,67.9,30.01,SSW,194,0.0,1.0,93,0.12,,,0.54,Wunderground v.1.15,2013-08-01 04:00:00,
2013-08-01 00:10:00,70.1,68.3,30.01,SSW,207,0.0,0.0,94,0.11,,,0.01,Wunderground v.1.15,2013-08-01 04:10:00,
2013-08-01 00:20:00,70.1,68.3,30.01,SSW,205,0.0,0.0,94,0.07,,,0.02,Wunderground v.1.15,2013-08-01 04:20:00,
2013-08-01 00:30:00,70.2,68.4,30.00,SSW,205,0.0,0.0,94,0.04,,,0.03,Wunderground v.1.15,2013-08-01 04:30:00,
2013-08-01 00:40:00,70.2,68.4,30.00,SSW,205,0.0,0.0,94,0.09,,,0.05,Wunderground v.1.15,2013-08-01 04:40:00,
2013-08-01 00:50:00,70.3,68.5,30.00,SSW,205,0.0,0.0,94,0.06,,,0.06,Wunderground v.1.15,2013-08-01 04:50:00,
2013-08-01 01:00:00,70.3,68.5,30.00,SSW,205,0.0,0.0,94,0.19,,,0.09,Wunderground v.1.15,2013-08-01 05:00:00,
2013-08-01 01:10:00,70.3,68.5,30.00,SSW,205,0.0,0.0,94,0.19,,,0.12,Wunderground v.1.15,2013-08-01 05:10:00,
2013-08-01 01:20:00,70.4,68.6,30.00,SSW,205,0.0,0.0,94,0.05,,,0.13,Wunderground v.1.15,2013-08-01 05:20:00,
2013-08-01 01:30:00,70.5,68.7,29.99,SSW,205,0.0,0.0,94,0.05,,,0.13,Wunderground v.1.15,2013-08-01 05:30:00,
2013-08-01 01:40:00,70.6,68.8,29.98,SSW,205,0.0,0.0,94,0.00,,,0.13,Wunderground v.1.15,2013-08-01 05:40:00,
2013-08-01 01:50:00,70.6,68.8,29.98,SSW,205,0.0,0.0,94,0.00,,,0.13,Wunderground v.1.15,2013-08-01 05:50:00,
2013-08-01 02:00:00,70.6,68.8,29.98,SSW,205,0.0,0.0,94,0.00,,,0.13,Wunderground v.1.15,2013-08-01 06:00:00,
2013-08-01 02:09:00,70.6,68.8,29.97,SSW,205,0.0,0.0,94,0.00,,,0.13,Wunderground v.1.15,2013-08-01 06:09:00,
2013-08-01 02:20:00,70.7,68.9,29.97,SSW,205,0.0,0.0,94,0.00,,,0.13,Wunderground v.1.15,2013-08-01 06:20:00,
2013-08-01 02:30:00,70.7,68.9,29.97,SSW,205,0.0,0.0,94,0.00,,,0.14,Wunderground v.1.15,2013-08-01 06:30:00,
2013-08-01 02:40:00,70.7,69.2,29.96,SSW,205,0.0,0.0,95,0.00,,,0.14,Wunderground v.1.15,2013-08-01 06:40:00,
2013-08-01 02:50:00,70.7,68.9,29.96,SSW,205,0.0,0.0,94,0.00,,,0.14,Wunderground v.1.15,2013-08-01 06:50:00,
2013-08-01 03:00:00,70.7,69.2,29.95,SSW,205,0.0,0.0,95,0.00,,,0.14,Wunderground v.1.15,2013-08-01 07:00:00,
2013-08-01 03:10:00,70.7,69.2,29.95,SSW,205,0.0,0.0,95,0.00,,,0.14,Wunderground v.1.15,2013-08-01 07:10:00,
2013-08-01 03:20:00,70.7,69.2,29.94,SSW,205,0.0,0.0,95,0.00,,,0.14,Wunderground v.1.15,2013-08-01 07:20:00,
2013-08-01 03:30:00,70.7,69.2,29.94,SSW,205,0.0,0.0,95,0.00,,,0.14,Wunderground v.1.15,2013-08-01 07:30:00,
2013-08-01 03:40:00,70.7,69.2,29.94,SSW,205,0.0,0.0,95,0.00,,,0.14,Wunderground v.1.15,2013-08-01 07:40:00,
2013-08-01 03:50:00,70.7,69.2,29.93,SSW,205,0.0,0.0,95,0.00,,,0.14,Wunderground v.1.15,2013-08-01 07:50:00,
2013-08-01 04:00:00,70.7,69.2,29.94,SSW,205,0.0,0.0,95,0.00,,,0.14,Wunderground v.1.15,2013-08-01 08:00:00,
2013-08-01 04:10:00,70.7,69.2,29.93,SSW,205,0.0,0.0,95,0.00,,,0.14,Wunderground v.1.15,2013-08-01 08:10:00,
2013-08-01 04:20:00,70.7,69.2,29.93,SSE,152,0.0,0.0,95,0.00,,,0.14,Wunderground v.1.15,2013-08-01 08:20:00,
2013-08-01 04:30:00,70.7,69.2,29.93,SSE,152,0.0,0.0,95,0.00,,,0.14,Wunderground v.1.15,2013-08-01 08:30:00,
2013-08-01 04:40:00,70.7,69.2,29.93,SSE,152,0.0,0.0,95,0.00,,,0.14,Wunderground v.1.15,2013-08-01 08:40:00,
2013-08-01 04:50:00,70.7,69.2,29.93,SSE,152,0.0,0.0,95,0.00,,,0.14,Wunderground v.1.15,2013-08-01 08:50:00,
2013-08-01 05:10:00,70.6,69.1,29.93,SSE,152,0.0,0.0,95,0.00,,,0.14,Wunderground v.1.15,2013-08-01 09:10:00,
2013-08-01 05:30:00,70.6,69.1,29.93,SSE,152,0.0,0.0,95,0.00,,,0.14,Wunderground v.1.15,2013-08-01 09:30:00,
2013-08-01 05:40:00,70.5,69.0,29.93,SSE,152,0.0,0.0,95,0.00,,,0.14,Wunderground v.1.15,2013-08-01 09:40:00,
2013-08-01 05:50:00,70.5,69.0,29.93,SSE,152,0.0,0.0,95,0.00,,,0.14,Wunderground v.1.15,2013-08-01 09:50:00,
2013-08-01 06:00:00,70.5,69.0,29.93,SSE,152,0.0,0.0,95,0.00,,,0.14,Wunderground v.1.15,2013-08-01 10:00:00,
2013-08-01 06:20:00,70.3,68.8,29.93,SSE,152,0.0,0.0,95,0.00,,,0.14,Wunderground v.1.15,2013-08-01 10:20:00,
2013-08-01 06:30:00,70.3,68.8,29.94,SSE,152,0.0,0.0,95,0.00,,,0.14,Wunderground v.1.15,2013-08-01 10:30:00,
2013-08-01 06:40:00,70.4,68.9,29.94,SSE,152,0.0,0.0,95,0.00,,,0.14,Wunderground v.1.15,2013-08-01 10:40:00,
2013-08-01 06:50:00,70.4,68.9,29.93,SSE,152,0.0,0.0,95,0.00,,,0.14,Wunderground v.1.15,2013-08-01 10:50:00,
2013-08-01 07:00:00,70.4,68.9,29.93,SSE,152,0.0,0.0,95,0.00,,,0.14,Wunderground v.1.15,2013-08-01 11:00:00,
2013-08-01 07:10:00,70.3,68.8,29.93,SSE,152,0.0,0.0,95,0.00,,,0.15,Wunderground v.1.15,2013-08-01 11:10:00,
2013-08-01 07:20:00,70.3,68.8,29.93,SSE,152,0.0,0.0,95,0.00,,,0.15,Wunderground v.1.15,2013-08-01 11:20:00,
2013-08-01 07:40:00,70.5,69.3,29.93,SSE,152,0.0,0.0,96,0.00,,,0.15,Wunderground v.1.15,2013-08-01 11:40:00,
2013-08-01 07:50:00,70.6,69.4,29.94,SSE,152,0.0,0.0,96,0.00,,,0.15,Wunderground v.1.15,2013-08-01 11:50:00,
2013-08-01 08:00:00,70.6,69.4,29.94,SSE,152,0.0,0.0,96,0.00,,,0.15,Wunderground v.1.15,2013-08-01 12:00:00,
2013-08-01 08:10:00,70.8,69.6,29.94,SE,138,0.0,0.0,96,0.00,,,0.15,Wunderground v.1.15,2013-08-01 12:10:00,
2013-08-01 08:20:00,70.9,69.7,29.94,SE,138,0.0,0.0,96,0.00,,,0.15,Wunderground v.1.15,2013-08-01 12:20:00,
2013-08-01 08:40:00,71.0,69.8,29.95,SE,138,0.0,0.0,96,0.00,,,0.15,Wunderground v.1.15,2013-08-01 12:40:00,
2013-08-01 08:50:00,71.0,69.8,29.95,SE,138,0.0,0.0,96,0.00,,,0.15,Wunderground v.1.15,2013-08-01 12:50:00,
2013-08-01 09:00:00,71.3,70.1,29.94,SE,137,0.0,0.0,96,0.00,,,0.15,Wunderground v.1.15,2013-08-01 13:00:00,
2013-08-01 09:10:00,71.5,70.3,29.94,SE,138,0.0,0.0,96,0.00,,,0.15,Wunderground v.1.15,2013-08-01 13:10:00,
2013-08-01 09:20:00,71.7,70.5,29.94,SE,137,0.0,0.0,96,0.00,,,0.15,Wunderground v.1.15,2013-08-01 13:20:00,
2013-08-01 09:30:00,71.8,70.6,29.94,SE,137,0.0,0.0,96,0.00,,,0.15,Wunderground v.1.15,2013-08-01 13:30:00,
2013-08-01 09:40:00,71.7,70.5,29.94,SE,138,0.0,0.0,96,0.00,,,0.15,Wunderground v.1.15,2013-08-01 13:40:00,
2013-08-01 09:50:00,71.8,70.6,29.94,SE,138,0.0,0.0,96,0.00,,,0.15,Wunderground v.1.15,2013-08-01 13:50:00,
2013-08-01 09:59:00,71.9,70.7,29.94,SE,138,0.0,0.0,96,0.00,,,0.15,Wunderground v.1.15,2013-08-01 13:59:00,
2013-08-01 10:10:00,71.9,70.7,29.94,SE,138,0.0,0.0,96,0.00,,,0.15,Wunderground v.1.15,2013-08-01 14:10:00,
2013-08-01 10:20:00,71.9,70.7,29.94,SE,138,0.0,0.0,96,0.00,,,0.15,Wunderground v.1.15,2013-08-01 14:20:00,
2013-08-01 10:30:00,71.9,70.7,29.94,SE,138,0.0,0.0,96,0.00,,,0.15,Wunderground v.1.15,2013-08-01 14:30:00,
2013-08-01 10:40:00,72.1,70.6,29.94,SE,138,0.0,0.0,95,0.00,,,0.15,Wunderground v.1.15,2013-08-01 14:40:00,
2013-08-01 10:50:00,72.2,71.0,29.94,SE,138,0.0,0.0,96,0.00,,,0.15,Wunderground v.1.15,2013-08-01 14:50:00,
2013-08-01 11:10:00,72.7,71.5,29.93,SE,138,0.0,0.0,96,0.00,,,0.15,Wunderground v.1.15,2013-08-01 15:10:00,
2013-08-01 11:20:00,72.7,71.2,29.93,SE,138,0.0,0.0,95,0.00,,,0.15,Wunderground v.1.15,2013-08-01 15:20:00,
2013-08-01 11:30:00,73.1,71.6,29.93,SE,138,0.0,0.0,95,0.00,,,0.15,Wunderground v.1.15,2013-08-01 15:30:00,
2013-08-01 11:40:00,73.4,71.9,29.93,SE,138,0.0,1.0,95,0.00,,,0.15,Wunderground v.1.15,2013-08-01 15:40:00,
2013-08-01 11:50:00,73.8,72.3,29.93,SE,139,0.0,0.0,95,0.00,,,0.15,Wunderground v.1.15,2013-08-01 15:50:00,
2013-08-01 12:10:00,74.2,72.0,29.93,WSW,244,0.0,0.0,93,0.00,,,0.15,Wunderground v.1.15,2013-08-01 16:10:00,
2013-08-01 12:20:00,74.2,72.4,29.93,WSW,244,0.0,0.0,94,0.00,,,0.15,Wunderground v.1.15,2013-08-01 16:20:00,
2013-08-01 12:30:00,75.1,72.9,29.93,North,5,0.0,0.0,93,0.00,,,0.15,Wunderground v.1.15,2013-08-01 16:30:00,
2013-08-01 12:40:00,75.4,73.2,29.92,North,360,0.0,0.0,93,0.00,,,0.15,Wunderground v.1.15,2013-08-01 16:40:00,
2013-08-01 12:50:00,76.2,73.4,29.92,NW,322,1.0,1.0,91,0.00,,,0.15,Wunderground v.1.15,2013-08-01 16:50:00,
2013-08-01 13:10:00,77.9,74.4,29.91,North,355,0.0,0.0,89,0.00,,,0.15,Wunderground v.1.15,2013-08-01 17:10:00,
2013-08-01 13:20:00,78.5,74.6,29.91,North,360,0.0,0.0,88,0.00,,,0.15,Wunderground v.1.15,2013-08-01 17:20:00,
2013-08-01 13:30:00,78.7,74.5,29.91,NNE,12,1.0,1.0,87,0.00,,,0.15,Wunderground v.1.15,2013-08-01 17:30:00,
2013-08-01 13:40:00,78.5,74.6,29.90,NNE,12,0.0,1.0,88,0.00,,,0.15,Wunderground v.1.15,2013-08-01 17:40:00,
2013-08-01 13:50:00,78.6,74.7,29.90,NNE,12,0.0,0.0,88,0.00,,,0.15,Wunderground v.1.15,2013-08-01 17:50:00,
2013-08-01 14:00:00,78.5,75.0,29.89,North,5,0.0,0.0,89,0.00,,,0.15,Wunderground v.1.15,2013-08-01 18:00:00,
2013-08-01 14:10:00,79.2,74.6,29.89,North,5,0.0,1.0,86,0.00,,,0.15,Wunderground v.1.15,2013-08-01 18:10:00,
2013-08-01 14:20:00,79.9,75.0,29.89,North,360,0.0,1.0,85,0.00,,,0.15,Wunderground v.1.15,2013-08-01 18:20:00,
2013-08-01 14:30:00,79.7,75.5,29.89,North,360,0.0,0.0,87,0.00,,,0.15,Wunderground v.1.15,2013-08-01 18:30:00,
2013-08-01 14:40:00,79.1,74.9,29.89,North,5,0.0,0.0,87,0.00,,,0.15,Wunderground v.1.15,2013-08-01 18:40:00,
2013-08-01 14:50:00,79.6,74.3,29.89,East,92,0.0,1.0,84,0.00,,,0.15,Wunderground v.1.15,2013-08-01 18:50:00,
2013-08-01 15:00:00,80.5,75.6,29.88,NNE,30,1.0,1.0,85,0.00,,,0.15,Wunderground v.1.15,2013-08-01 19:00:00,
2013-08-01 15:20:00,80.7,75.4,29.88,NW,325,0.0,0.0,84,0.00,,,0.15,Wunderground v.1.15,2013-08-01 19:20:00,
2013-08-01 15:30:00,80.7,75.1,29.88,NW,325,0.0,0.0,83,0.00,,,0.15,Wunderground v.1.15,2013-08-01 19:30:00,
2013-08-01 15:40:00,81.4,75.4,29.88,NNW,329,0.0,1.0,82,0.00,,,0.15,Wunderground v.1.15,2013-08-01 19:40:00,
2013-08-01 15:50:00,81.4,75.4,29.88,North,360,0.0,0.0,82,0.00,,,0.15,Wunderground v.1.15,2013-08-01 19:50:00,
2013-08-01 16:00:00,80.8,75.2,29.87,North,360,0.0,0.0,83,0.00,,,0.15,Wunderground v.1.15,2013-08-01 20:00:00,
2013-08-01 16:10:00,80.1,75.2,29.87,North,360,0.0,0.0,85,0.00,,,0.15,Wunderground v.1.15,2013-08-01 20:10:00,
2013-08-01 16:20:00,79.4,75.2,29.87,North,360,0.0,0.0,87,0.00,,,0.15,Wunderground v.1.15,2013-08-01 20:20:00,
2013-08-01 16:30:00,79.0,75.1,29.87,North,360,0.0,0.0,88,0.00,,,0.15,Wunderground v.1.15,2013-08-01 20:30:00,
2013-08-01 16:40:00,78.8,75.3,29.86,North,360,0.0,0.0,89,0.00,,,0.15,Wunderground v.1.15,2013-08-01 20:40:00,
2013-08-01 16:50:00,78.4,74.9,29.87,North,360,0.0,0.0,89,0.00,,,0.15,Wunderground v.1.15,2013-08-01 20:50:00,
2013-08-01 17:00:00,78.1,74.9,29.87,North,360,0.0,0.0,90,0.00,,,0.15,Wunderground v.1.15,2013-08-01 21:00:00,
2013-08-01 17:10:00,77.8,74.3,29.88,North,360,0.0,0.0,89,0.00,,,0.15,Wunderground v.1.15,2013-08-01 21:10:00,
2013-08-01 17:20:00,77.5,74.0,29.87,North,360,0.0,0.0,89,0.00,,,0.15,Wunderground v.1.15,2013-08-01 21:20:00,
2013-08-01 17:30:00,77.4,73.9,29.88,North,355,0.0,0.0,89,0.00,,,0.15,Wunderground v.1.15,2013-08-01 21:30:00,
2013-08-01 17:40:00,77.1,73.6,29.88,NE,51,0.0,0.0,89,0.00,,,0.15,Wunderground v.1.15,2013-08-01 21:40:00,
2013-08-01 17:50:00,76.7,72.9,29.88,ENE,71,0.0,0.0,88,0.00,,,0.15,Wunderground v.1.15,2013-08-01 21:50:00,
2013-08-01 18:00:00,76.4,72.6,29.87,SSE,165,0.0,0.0,88,0.00,,,0.15,Wunderground v.1.15,2013-08-01 22:00:00,
2013-08-01 18:10:00,76.5,72.7,29.87,WSW,238,0.0,2.0,88,0.00,,,0.15,Wunderground v.1.15,2013-08-01 22:10:00,
2013-08-01 18:30:00,77.2,72.7,29.87,WSW,238,0.0,0.0,86,0.00,,,0.15,Wunderground v.1.15,2013-08-01 22:30:00,
2013-08-01 18:40:00,77.3,73.1,29.87,WSW,237,0.0,0.0,87,0.00,,,0.15,Wunderground v.1.15,2013-08-01 22:40:00,
2013-08-01 18:50:00,77.2,73.0,29.88,WSW,237,0.0,0.0,87,0.00,,,0.15,Wunderground v.1.15,2013-08-01 22:50:00,
2013-08-01 19:00:00,76.9,72.7,29.88,WSW,237,0.0,0.0,87,0.00,,,0.15,Wunderground v.1.15,2013-08-01 23:00:00,
2013-08-01 19:10:00,76.7,72.5,29.88,WSW,237,0.0,0.0,87,0.00,,,0.15,Wunderground v.1.15,2013-08-01 23:10:00,
2013-08-01 19:20:00,76.6,72.8,29.88,WSW,238,0.0,0.0,88,0.00,,,0.15,Wunderground v.1.15,2013-08-01 23:20:00,
2013-08-01 19:30:00,76.3,72.8,29.88,WSW,238,0.0,0.0,89,0.00,,,0.15,Wunderground v.1.15,2013-08-01 23:30:00,
2013-08-01 19:40:00,76.0,72.5,29.88,WSW,238,0.0,0.0,89,0.00,,,0.15,Wunderground v.1.15,2013-08-01 23:40:00,
2013-08-01 19:50:00,75.8,72.7,29.89,WSW,238,0.0,0.0,90,0.00,,,0.15,Wunderground v.1.15,2013-08-01 23:50:00,
2013-08-01 20:00:00,75.6,72.5,29.89,WSW,237,0.0,0.0,90,0.00,,,0.15,Wunderground v.1.15,2013-08-02 00:00:00,
2013-08-01 20:10:00,75.5,72.4,29.90,WSW,237,0.0,0.0,90,0.00,,,0.15,Wunderground v.1.15,2013-08-02 00:10:00,
2013-08-01 20:20:00,75.5,72.7,29.90,WSW,237,0.0,0.0,91,0.00,,,0.15,Wunderground v.1.15,2013-08-02 00:20:00,
2013-08-01 20:29:00,75.4,72.6,29.90,WSW,237,0.0,0.0,91,0.00,,,0.15,Wunderground v.1.15,2013-08-02 00:29:00,
2013-08-01 20:40:00,75.2,72.4,29.90,WSW,238,0.0,0.0,91,0.00,,,0.15,Wunderground v.1.15,2013-08-02 00:40:00,
2013-08-01 20:50:00,75.0,72.5,29.91,WSW,238,0.0,0.0,92,0.00,,,0.15,Wunderground v.1.15,2013-08-02 00:50:00,
2013-08-01 21:00:00,74.8,72.0,29.91,WSW,238,0.0,0.0,91,0.00,,,0.15,Wunderground v.1.15,2013-08-02 01:00:00,
2013-08-01 21:10:00,74.7,72.2,29.91,WSW,238,0.0,0.0,92,0.00,,,0.15,Wunderground v.1.15,2013-08-02 01:10:00,
2013-08-01 21:20:00,74.5,72.0,29.91,WSW,238,0.0,0.0,92,0.00,,,0.15,Wunderground v.1.15,2013-08-02 01:20:00,
2013-08-01 21:30:00,74.2,71.7,29.91,WSW,237,0.0,0.0,92,0.00,,,0.15,Wunderground v.1.15,2013-08-02 01:30:00,
2013-08-01 21:40:00,74.0,71.5,29.91,WSW,237,0.0,0.0,92,0.00,,,0.15,Wunderground v.1.15,2013-08-02 01:40:00,
2013-08-01 21:50:00,73.7,71.2,29.91,WSW,237,0.0,0.0,92,0.00,,,0.15,Wunderground v.1.15,2013-08-02 01:50:00,
2013-08-01 22:10:00,73.3,70.8,29.91,WSW,238,0.0,0.0,92,0.00,,,0.15,Wunderground v.1.15,2013-08-02 02:10:00,
2013-08-01 22:20:00,73.1,70.6,29.91,WSW,238,0.0,0.0,92,0.00,,,0.15,Wunderground v.1.15,2013-08-02 02:20:00,
2013-08-01 22:30:00,72.9,70.4,29.92,WSW,238,0.0,0.0,92,0.00,,,0.15,Wunderground v.1.15,2013-08-02 02:30:00,
2013-08-01 22:40:00,72.7,70.2,29.92,WSW,238,0.0,0.0,92,0.00,,,0.15,Wunderground v.1.15,2013-08-02 02:40:00,
2013-08-01 22:50:00,72.5,70.0,29.93,WSW,238,0.0,0.0,92,0.00,,,0.15,Wunderground v.1.15,2013-08-02 02:50:00,
2013-08-01 23:00:00,72.3,70.2,29.93,WSW,238,0.0,0.0,93,0.00,,,0.15,Wunderground v.1.15,2013-08-02 03:00:00,
2013-08-01 23:10:00,71.9,69.8,29.93,WSW,238,0.0,0.0,93,0.00,,,0.15,Wunderground v.1.15,2013-08-02 03:10:00,
2013-08-01 23:20:00,71.8,69.7,29.93,WSW,238,0.0,0.0,93,0.00,,,0.15,Wunderground v.1.15,2013-08-02 03:20:00,
2013-08-01 23:30:00,71.8,69.7,29.93,WSW,238,0.0,0.0,93,0.00,,,0.15,Wunderground v.1.15,2013-08-02 03:30:00,
2013-08-01 23:40:00,71.7,69.6,29.94,WSW,237,0.0,1.0,93,0.00,,,0.15,Wunderground v.1.15,2013-08-02 03:40:00,
2013-08-01 23:50:00,72.4,70.6,29.94,NNE,18,1.0,1.0,94,0.00,,,0.15,Wunderground v.1.15,2013-08-02 03:50:00,